Time;durP1;ratioP1;P1;durP2;ratioP2;P2;SDS_P1;SDS_P2;PMS_P1;PMS_P2;Temp;Humidity;BMP_temperature;BMP_pressure;BME280_temperature;BME280_humidity;BME280_pressure;Samples;Min_cycle;Max_cycle;Signal;HPM_P1;HPM_P2
2023/03/13 00:00:58;;;;;;;;;;;7.70;99.90;;;;;;5094315;28;19909;-70
2023/03/13 00:03:23;;;;;;;;;;;7.70;99.90;;;;;;5094424;28;20380;-70
2023/03/13 00:05:49;;;;;;;;;;;7.70;99.90;;;;;;5099742;28;19991;-70
2023/03/13 00:08:14;;;;;;;;;;;7.70;99.90;;;;;;5094152;28;19908;-70
2023/03/13 00:10:40;;;;;;;;;;;7.70;99.90;;;;;;5094956;28;19923;-70
2023/03/13 00:13:06;;;;;;;;;;;7.70;99.90;;;;;;5074216;28;20585;-70
2023/03/13 00:15:32;;;;;;;;;;;7.70;99.90;;;;;;5074248;28;20346;-70
2023/03/13 00:17:57;;;;;;;;;;;7.70;99.90;;;;;;5073959;28;19924;-70
2023/03/13 00:20:23;;;;;;;;;;;7.70;99.90;;;;;;5106508;28;19935;-70
2023/03/13 00:22:49;;;;;;;;;;;7.70;99.90;;;;;;5077936;28;19920;-70
2023/03/13 00:25:14;;;;;;;;;;;7.70;99.90;;;;;;5109972;27;20570;-70
2023/03/13 00:27:40;;;;;;;;;;;7.70;99.90;;;;;;5095510;28;20096;-70
2023/03/13 00:30:05;;;;;;;;;;;7.80;99.90;;;;;;5092790;28;19977;-71
2023/03/13 00:32:31;;;;;;;;;;;7.80;99.90;;;;;;5093807;28;20656;-70
2023/03/13 00:34:56;;;;;;;;;;;7.70;99.90;;;;;;5102190;28;19912;-70
2023/03/13 00:37:22;;;;;;;;;;;7.80;99.90;;;;;;5114666;27;20328;-70
2023/03/13 00:39:47;;;;;;;;;;;7.80;99.90;;;;;;5114637;28;20565;-70
2023/03/13 00:42:13;;;;;;;;;;;7.80;99.90;;;;;;5102555;27;19919;-70
2023/03/13 00:44:38;;;;;;;;;;;7.80;99.90;;;;;;5092139;28;20309;-70
2023/03/13 00:47:05;;;;;;;;;;;7.70;99.90;;;;;;5090861;28;19961;-70
2023/03/13 00:49:31;;;;;;;;;;;7.80;99.90;;;;;;5090708;28;21917;-70
2023/03/13 00:51:56;;;;;;;;;;;7.80;99.90;;;;;;5090061;28;19959;-70
2023/03/13 00:54:22;;;;;;;;;;;7.80;99.90;;;;;;5105835;28;19912;-70
2023/03/13 00:56:47;;;;;;;;;;;7.80;99.90;;;;;;5093357;28;20588;-70
2023/03/13 00:59:13;;;;;;;;;;;7.80;99.90;;;;;;5093797;28;19912;-70
2023/03/13 01:01:39;;;;;;;;;;;7.80;99.90;;;;;;5109321;28;19915;-70
2023/03/13 01:04:08;;;;;;;;;;;7.80;99.90;;;;;;5110206;28;19977;-70
2023/03/13 01:06:35;;;;;;;;;;;7.80;99.90;;;;;;5090430;28;20405;-72
2023/03/13 01:09:02;;;;;;;;;;;7.80;99.90;;;;;;5090503;28;19912;-72
2023/03/13 01:11:29;;;;;;;;;;;7.80;99.90;;;;;;5083328;28;19916;-72
2023/03/13 01:13:55;;;;;;;;;;;7.80;99.90;;;;;;5070164;28;19920;-72
2023/03/13 01:16:22;;;;;;;;;;;7.80;99.90;;;;;;5069845;28;20010;-72
2023/03/13 01:18:48;;;;;;;;;;;7.80;99.90;;;;;;5068551;28;19916;-71
2023/03/13 01:21:15;;;;;;;;;;;7.80;99.90;;;;;;5069523;28;20258;-72
2023/03/13 01:23:41;;;;;;;;;;;7.70;99.90;;;;;;5096512;27;19912;-71
2023/03/13 01:26:07;;;;;;;;;;;7.70;99.90;;;;;;5088591;28;20475;-72
2023/03/13 01:28:33;;;;;;;;;;;7.80;99.90;;;;;;5090303;28;19998;-72
2023/03/13 01:30:59;;;;;;;;;;;7.70;99.90;;;;;;5089785;28;20566;-72
2023/03/13 01:33:24;;;;;;;;;;;7.70;99.90;;;;;;5090241;28;19916;-71
2023/03/13 01:35:50;;;;;;;;;;;7.70;99.90;;;;;;5105700;28;19911;-72
2023/03/13 01:38:15;;;;;;;;;;;7.70;99.90;;;;;;5110505;28;19984;-72
2023/03/13 01:40:42;;;;;;;;;;;7.80;99.90;;;;;;5109873;28;19947;-72
2023/03/13 01:43:24;;;;;;;;;;;7.70;99.90;;;;;;5108133;28;19908;-72
2023/03/13 01:45:49;;;;;;;;;;;7.80;99.90;;;;;;5110309;28;19908;-69
2023/03/13 01:48:16;;;;;;;;;;;7.70;99.90;;;;;;5110021;28;19966;-69
2023/03/13 01:50:41;;;;;;;;;;;7.70;99.90;;;;;;5088072;28;19915;-69
2023/03/13 01:53:07;;;;;;;;;;;7.70;99.90;;;;;;5093703;28;19908;-70
2023/03/13 01:55:33;;;;;;;;;;;7.70;99.90;;;;;;5102972;28;19912;-69
2023/03/13 01:57:59;;;;;;;;;;;7.70;99.90;;;;;;5089409;28;20376;-69
2023/03/13 02:00:32;;;;;;;;;;;7.70;99.90;;;;;;5089300;28;20053;-69
2023/03/13 02:03:00;;;;;;;;;;;7.70;99.90;;;;;;5087904;28;19912;-70
2023/03/13 02:05:26;;;;;;;;;;;7.70;99.90;;;;;;5101385;28;20312;-70
2023/03/13 02:08:03;;;;;;;;;;;7.70;99.90;;;;;;5109801;28;20035;-70
2023/03/13 02:10:30;;;;;;;;;;;7.70;99.90;;;;;;5102976;28;19956;-70
2023/03/13 02:12:58;;;;;;;;;;;7.70;99.90;;;;;;5070472;28;19917;-70
2023/03/13 02:15:24;;;;;;;;;;;7.70;99.90;;;;;;5077457;28;19912;-69
2023/03/13 02:17:50;;;;;;;;;;;7.70;99.90;;;;;;5089347;28;19923;-69
2023/03/13 02:20:17;;;;;;;;;;;7.70;99.90;;;;;;5089024;28;19916;-69
2023/03/13 02:23:01;;;;;;;;;;;7.70;99.90;;;;;;5090171;28;20357;-70
2023/03/13 02:25:33;;;;;;;;;;;7.70;99.90;;;;;;5103379;28;19962;-70
2023/03/13 02:28:07;;;;;;;;;;;7.70;99.90;;;;;;5089401;28;19912;-70
2023/03/13 02:30:33;;;;;;;;;;;7.70;99.90;;;;;;5088807;28;20654;-70
2023/03/13 02:33:00;;;;;;;;;;;7.70;99.90;;;;;;5077471;28;19916;-70
2023/03/13 02:35:26;;;;;;;;;;;7.70;99.90;;;;;;5080816;28;19993;-69
2023/03/13 02:37:57;;;;;;;;;;;7.70;99.90;;;;;;5088837;28;20376;-69
2023/03/13 02:40:25;;;;;;;;;;;7.80;99.90;;;;;;5088905;28;19947;-69
2023/03/13 02:42:51;;;;;;;;;;;7.70;99.90;;;;;;5070687;28;19919;-69
2023/03/13 02:45:17;;;;;;;;;;;7.80;99.90;;;;;;5068509;28;20293;-69
2023/03/13 02:47:43;;;;;;;;;;;7.80;99.90;;;;;;5068449;28;20365;-69
2023/03/13 02:50:10;;;;;;;;;;;7.80;99.90;;;;;;5076665;28;19916;-69
2023/03/13 02:52:37;;;;;;;;;;;7.80;99.90;;;;;;5088113;28;19916;-69
2023/03/13 02:55:05;;;;;;;;;;;7.80;99.90;;;;;;5106326;28;19912;-70
2023/03/13 02:57:31;;;;;;;;;;;7.80;99.90;;;;;;5088541;28;20003;-70
2023/03/13 02:59:56;;;;;;;;;;;7.80;99.90;;;;;;5088741;28;20347;-70
2023/03/13 03:02:22;;;;;;;;;;;7.80;99.90;;;;;;5088289;28;19908;-69
2023/03/13 03:04:48;;;;;;;;;;;7.80;99.90;;;;;;5088487;28;19951;-69
2023/03/13 03:07:13;;;;;;;;;;;7.80;99.90;;;;;;5088577;28;19912;-69
2023/03/13 03:09:39;;;;;;;;;;;7.80;99.90;;;;;;5088233;28;19912;-70
2023/03/13 03:12:04;;;;;;;;;;;7.80;99.90;;;;;;5076531;28;19935;-70
2023/03/13 03:14:30;;;;;;;;;;;7.80;99.90;;;;;;5068212;28;19920;-70
2023/03/13 03:16:55;;;;;;;;;;;7.80;99.90;;;;;;5067872;28;19954;-70
2023/03/13 03:19:21;;;;;;;;;;;7.80;99.90;;;;;;5068106;28;19913;-69
2023/03/13 03:21:48;;;;;;;;;;;7.80;99.90;;;;;;5075402;28;19916;-69
2023/03/13 03:24:14;;;;;;;;;;;7.80;99.90;;;;;;5102241;28;20007;-70
2023/03/13 03:26:39;;;;;;;;;;;7.80;99.90;;;;;;5091814;28;19999;-70
2023/03/13 03:29:06;;;;;;;;;;;7.80;99.90;;;;;;5088319;28;20467;-70
2023/03/13 03:31:32;;;;;;;;;;;7.90;99.90;;;;;;5087731;28;19951;-70
2023/03/13 03:33:57;;;;;;;;;;;7.90;99.90;;;;;;5088129;28;19954;-70
2023/03/13 03:36:23;;;;;;;;;;;7.90;99.90;;;;;;5087816;28;19912;-70
2023/03/13 03:38:49;;;;;;;;;;;7.90;99.90;;;;;;5088157;28;20027;-70
2023/03/13 03:41:15;;;;;;;;;;;7.90;99.90;;;;;;5083041;28;19913;-70
2023/03/13 03:43:41;;;;;;;;;;;7.90;99.90;;;;;;5067877;28;20016;-70
2023/03/13 03:46:06;;;;;;;;;;;7.90;99.90;;;;;;5067659;28;19991;-70
2023/03/13 03:48:32;;;;;;;;;;;7.90;99.90;;;;;;5067523;28;19966;-69
2023/03/13 03:50:57;;;;;;;;;;;7.90;99.90;;;;;;5074175;28;20033;-69
2023/03/13 03:53:23;;;;;;;;;;;8.00;99.90;;;;;;5094014;28;19912;-70
2023/03/13 03:55:48;;;;;;;;;;;8.00;99.90;;;;;;5098758;28;19961;-70
2023/03/13 03:58:14;;;;;;;;;;;8.00;99.90;;;;;;5088000;28;20613;-69
2023/03/13 04:00:42;;;;;;;;;;;7.90;99.90;;;;;;5087955;28;19908;-69
2023/03/13 04:03:07;;;;;;;;;;;8.00;99.90;;;;;;5087900;28;19908;-69
2023/03/13 04:05:33;;;;;;;;;;;8.00;99.90;;;;;;5087689;28;19912;-69
2023/03/13 04:07:59;;;;;;;;;;;8.00;99.90;;;;;;5087874;28;19985;-70
2023/03/13 04:10:24;;;;;;;;;;;8.00;99.90;;;;;;5087506;28;19916;-70
2023/03/13 04:12:50;;;;;;;;;;;8.00;99.90;;;;;;5069765;28;19920;-69
2023/03/13 04:15:15;;;;;;;;;;;8.00;99.90;;;;;;5067548;28;20381;-70
2023/03/13 04:17:41;;;;;;;;;;;8.10;99.90;;;;;;5067401;28;19920;-69
2023/03/13 04:20:07;;;;;;;;;;;8.10;99.90;;;;;;5083711;28;20367;-70
2023/03/13 04:22:32;;;;;;;;;;;8.10;99.90;;;;;;5091013;28;19912;-70
2023/03/13 04:24:58;;;;;;;;;;;8.10;99.90;;;;;;5108978;28;19918;-70
2023/03/13 04:27:24;;;;;;;;;;;8.10;99.90;;;;;;5091119;28;19915;-70
2023/03/13 04:29:49;;;;;;;;;;;8.10;99.90;;;;;;5089577;28;19916;-70
2023/03/13 04:32:15;;;;;;;;;;;8.10;99.90;;;;;;5090927;28;19916;-70
2023/03/13 04:34:40;;;;;;;;;;;8.10;99.90;;;;;;5097013;28;20412;-69
2023/03/13 04:37:06;;;;;;;;;;;8.10;99.90;;;;;;5111604;28;19961;-69
2023/03/13 04:39:31;;;;;;;;;;;8.10;99.90;;;;;;5111758;28;19922;-70
2023/03/13 04:41:57;;;;;;;;;;;8.10;99.90;;;;;;5100653;28;19932;-70
2023/03/13 04:44:22;;;;;;;;;;;8.10;99.90;;;;;;5091309;28;19912;-70
2023/03/13 04:46:48;;;;;;;;;;;8.10;99.90;;;;;;5091103;28;20357;-70
2023/03/13 04:49:14;;;;;;;;;;;8.20;99.90;;;;;;5089497;28;20364;-70
2023/03/13 04:51:43;;;;;;;;;;;8.20;99.90;;;;;;5089588;28;20536;-70
2023/03/13 04:54:09;;;;;;;;;;;8.20;99.90;;;;;;5104137;28;19912;-70
2023/03/13 04:56:35;;;;;;;;;;;8.20;99.90;;;;;;5095421;28;19934;-70
2023/03/13 04:59:00;;;;;;;;;;;8.20;99.90;;;;;;5091055;28;19966;-70
2023/03/13 05:01:26;;;;;;;;;;;8.20;99.90;;;;;;5090810;28;19943;-69
2023/03/13 05:03:52;;;;;;;;;;;8.20;99.90;;;;;;5090680;28;19973;-70
2023/03/13 05:06:17;;;;;;;;;;;8.20;99.90;;;;;;5109612;28;19907;-69
2023/03/13 05:08:43;;;;;;;;;;;8.20;99.90;;;;;;5111055;28;19919;-70
2023/03/13 05:11:08;;;;;;;;;;;8.20;99.90;;;;;;5095083;28;19916;-69
2023/03/13 05:13:34;;;;;;;;;;;8.20;99.90;;;;;;5070475;28;19916;-69
2023/03/13 05:15:59;;;;;;;;;;;8.30;99.90;;;;;;5070324;28;19978;-69
2023/03/13 05:18:25;;;;;;;;;;;8.30;99.90;;;;;;5070196;28;19975;-70
2023/03/13 05:20:50;;;;;;;;;;;8.30;99.90;;;;;;5068302;28;19923;-69
2023/03/13 05:23:18;;;;;;;;;;;8.30;99.90;;;;;;5081505;28;21348;-69
2023/03/13 05:25:43;;;;;;;;;;;8.30;99.90;;;;;;5100390;28;19952;-69
2023/03/13 05:28:09;;;;;;;;;;;8.30;99.90;;;;;;5090278;28;19915;-69
2023/03/13 05:30:34;;;;;;;;;;;8.30;99.90;;;;;;5089539;28;19938;-70
2023/03/13 05:33:00;;;;;;;;;;;8.30;99.90;;;;;;5090041;28;20304;-70
2023/03/13 05:35:25;;;;;;;;;;;8.30;99.90;;;;;;5090143;28;19920;-71
2023/03/13 05:37:51;;;;;;;;;;;8.30;99.90;;;;;;5089975;28;20003;-69
2023/03/13 05:40:16;;;;;;;;;;;8.40;99.90;;;;;;5089800;28;19926;-69
2023/03/13 05:42:43;;;;;;;;;;;8.40;99.90;;;;;;5071390;28;19923;-69
2023/03/13 05:45:09;;;;;;;;;;;8.40;99.90;;;;;;5069745;28;19912;-70
2023/03/13 05:47:35;;;;;;;;;;;8.40;99.90;;;;;;5069599;28;19986;-70
2023/03/13 05:50:00;;;;;;;;;;;8.40;99.90;;;;;;5069122;28;20027;-70
2023/03/13 05:52:26;;;;;;;;;;;8.40;99.90;;;;;;5088497;28;19995;-69
2023/03/13 05:54:51;;;;;;;;;;;8.40;99.90;;;;;;5107564;28;19912;-70
2023/03/13 05:57:17;;;;;;;;;;;8.40;99.90;;;;;;5089484;28;19908;-70
2023/03/13 05:59:43;;;;;;;;;;;8.40;99.90;;;;;;5089626;28;20030;-70
2023/03/13 06:02:08;;;;;;;;;;;8.50;99.90;;;;;;5089335;28;19934;-69
2023/03/13 06:04:34;;;;;;;;;;;8.50;99.90;;;;;;5089746;28;20572;-69
2023/03/13 06:07:00;;;;;;;;;;;8.40;99.90;;;;;;5089374;28;20353;-69
2023/03/13 06:09:25;;;;;;;;;;;8.50;99.90;;;;;;5089484;28;19924;-69
2023/03/13 06:11:51;;;;;;;;;;;8.50;99.90;;;;;;5078773;28;19912;-69
2023/03/13 06:14:16;;;;;;;;;;;8.50;99.90;;;;;;5069226;28;20411;-70
2023/03/13 06:16:42;;;;;;;;;;;8.50;99.90;;;;;;5069107;28;19909;-69
2023/03/13 06:19:07;;;;;;;;;;;8.50;99.90;;;;;;5069091;28;19920;-69
2023/03/13 06:21:33;;;;;;;;;;;8.60;99.90;;;;;;5068445;28;19912;-70
2023/03/13 06:23:58;;;;;;;;;;;8.60;99.90;;;;;;5092559;28;20011;-70
2023/03/13 06:26:24;;;;;;;;;;;8.60;99.90;;;;;;5095047;28;19915;-70
2023/03/13 06:28:50;;;;;;;;;;;8.60;99.90;;;;;;5089122;28;19915;-70
2023/03/13 06:31:16;;;;;;;;;;;8.60;99.90;;;;;;5088691;28;19916;-69
2023/03/13 06:33:42;;;;;;;;;;;8.60;99.90;;;;;;5089217;28;20533;-69
2023/03/13 06:36:07;;;;;;;;;;;8.70;99.90;;;;;;5106801;28;19908;-70
2023/03/13 06:38:33;;;;;;;;;;;8.70;99.90;;;;;;5109187;28;19912;-69
2023/03/13 06:40:58;;;;;;;;;;;8.70;99.90;;;;;;5106435;28;20358;-70
2023/03/13 06:43:24;;;;;;;;;;;8.70;99.90;;;;;;5087798;28;20004;-70
2023/03/13 06:45:50;;;;;;;;;;;8.70;99.90;;;;;;5088696;28;20412;-70
2023/03/13 06:48:15;;;;;;;;;;;8.80;99.90;;;;;;5088478;28;19920;-70
2023/03/13 06:50:41;;;;;;;;;;;8.80;99.90;;;;;;5079881;28;19916;-70
2023/03/13 06:53:12;;;;;;;;;;;8.80;99.90;;;;;;5092737;28;19912;-70
2023/03/13 06:55:37;;;;;;;;;;;8.80;99.90;;;;;;5099635;28;19912;-69
2023/03/13 06:58:03;;;;;;;;;;;8.90;99.90;;;;;;5088327;28;19965;-69
2023/03/13 07:00:28;;;;;;;;;;;8.90;99.90;;;;;;5088453;28;20013;-69
2023/03/13 07:02:54;;;;;;;;;;;8.90;99.90;;;;;;5088328;28;20364;-69
2023/03/13 07:05:19;;;;;;;;;;;8.90;99.90;;;;;;5088219;28;19912;-70
2023/03/13 07:07:45;;;;;;;;;;;8.90;99.90;;;;;;5088463;28;19973;-70
2023/03/13 07:10:11;;;;;;;;;;;8.90;99.90;;;;;;5088088;28;19916;-69
2023/03/13 07:12:36;;;;;;;;;;;8.90;99.90;;;;;;5072173;28;19958;-70
2023/03/13 07:15:03;;;;;;;;;;;9.00;99.90;;;;;;5067809;28;19912;-70
2023/03/13 07:17:28;;;;;;;;;;;9.00;99.90;;;;;;5067772;28;19952;-69
2023/03/13 07:19:54;;;;;;;;;;;9.00;99.90;;;;;;5087249;28;19978;-70
2023/03/13 07:22:19;;;;;;;;;;;9.10;99.90;;;;;;5087723;28;19912;-69
2023/03/13 07:24:45;;;;;;;;;;;9.10;99.90;;;;;;5104145;28;19916;-70
2023/03/13 07:27:10;;;;;;;;;;;9.20;99.90;;;;;;5088037;28;19920;-70
2023/03/13 07:29:36;;;;;;;;;;;9.20;99.90;;;;;;5088036;28;19926;-69
2023/03/13 07:32:01;;;;;;;;;;;9.20;99.90;;;;;;5086084;28;20086;-70
2023/03/13 07:34:27;;;;;;;;;;;9.20;99.90;;;;;;5087779;28;20316;-70
2023/03/13 07:36:52;;;;;;;;;;;9.20;99.90;;;;;;5087292;28;19961;-70
2023/03/13 07:39:18;;;;;;;;;;;9.20;99.90;;;;;;5088055;28;19912;-70
2023/03/13 07:41:43;;;;;;;;;;;9.30;99.90;;;;;;5079032;28;20413;-70
2023/03/13 07:44:09;;;;;;;;;;;9.30;99.90;;;;;;5067775;28;19909;-70
2023/03/13 07:46:34;;;;;;;;;;;9.40;99.90;;;;;;5067645;28;20003;-70
2023/03/13 07:49:00;;;;;;;;;;;9.40;99.90;;;;;;5067985;28;19915;-70
2023/03/13 07:51:25;;;;;;;;;;;9.40;99.90;;;;;;5077915;28;19916;-70
2023/03/13 07:53:51;;;;;;;;;;;9.40;99.90;;;;;;5098687;28;20014;-70
2023/03/13 07:56:18;;;;;;;;;;;9.40;99.90;;;;;;5098889;28;19908;-71
2023/03/13 07:58:44;;;;;;;;;;;9.50;99.90;;;;;;5090647;28;19919;-70
2023/03/13 08:01:23;;;;;;;;;;;9.50;99.90;;;;;;5091888;28;20503;-70
2023/03/13 08:03:49;;;;;;;;;;;9.50;99.90;;;;;;5092043;28;20288;-70
2023/03/13 08:06:19;;;;;;;;;;;9.50;99.90;;;;;;5110757;28;20374;-70
2023/03/13 08:08:45;;;;;;;;;;;9.60;99.90;;;;;;5112091;28;19964;-70
2023/03/13 08:11:12;;;;;;;;;;;9.60;99.90;;;;;;5095376;28;19916;-70
2023/03/13 08:13:38;;;;;;;;;;;9.60;99.90;;;;;;5071507;28;20369;-71
2023/03/13 08:16:06;;;;;;;;;;;9.60;99.90;;;;;;5071521;28;19919;-70
2023/03/13 08:21:22;;;;;;;;;;;9.70;99.90;;;;;;5256660;22;19928;-77
2023/03/13 08:23:48;;;;;;;;;;;9.70;99.90;;;;;;5071271;28;19923;-77
2023/03/13 08:26:15;;;;;;;;;;;9.70;99.90;;;;;;5071199;28;20293;-76
2023/03/13 08:28:41;;;;;;;;;;;9.70;99.90;;;;;;5071594;28;19915;-77
2023/03/13 08:31:06;;;;;;;;;;;9.80;99.90;;;;;;5053312;28;20003;-76
2023/03/13 08:33:32;;;;;;;;;;;9.80;99.90;;;;;;5071559;28;20289;-76
2023/03/13 08:35:57;;;;;;;;;;;9.80;99.90;;;;;;5071025;28;19944;-76
2023/03/13 08:38:23;;;;;;;;;;;9.80;99.90;;;;;;5071381;28;20373;-77
2023/03/13 08:40:48;;;;;;;;;;;9.80;99.90;;;;;;5070744;28;19970;-77
2023/03/13 08:43:14;;;;;;;;;;;9.90;99.90;;;;;;5071112;28;20367;-77
2023/03/13 08:45:39;;;;;;;;;;;9.90;99.90;;;;;;5053288;28;19915;-77
2023/03/13 08:48:05;;;;;;;;;;;9.90;99.90;;;;;;5070929;28;19912;-76
2023/03/13 08:50:30;;;;;;;;;;;9.90;99.90;;;;;;5068518;28;19924;-76
2023/03/13 08:52:56;;;;;;;;;;;9.90;99.90;;;;;;5070900;28;19939;-77
2023/03/13 08:55:21;;;;;;;;;;;10.00;99.90;;;;;;5070461;28;19991;-76
2023/03/13 08:57:47;;;;;;;;;;;10.00;99.90;;;;;;5071282;28;20011;-77
2023/03/13 09:00:13;;;;;;;;;;;10.00;99.90;;;;;;5070959;28;20567;-76
2023/03/13 09:02:39;;;;;;;;;;;10.00;99.90;;;;;;5070336;28;20377;-76
2023/03/13 09:05:04;;;;;;;;;;;10.10;99.90;;;;;;5052272;28;19913;-76
2023/03/13 09:07:30;;;;;;;;;;;10.10;99.90;;;;;;5069236;28;19912;-76
2023/03/13 09:09:55;;;;;;;;;;;10.10;99.90;;;;;;5070009;28;20039;-76
2023/03/13 09:12:21;;;;;;;;;;;10.10;99.90;;;;;;5070007;28;19913;-77
2023/03/13 09:14:47;;;;;;;;;;;10.10;99.90;;;;;;5070236;28;20005;-76
2023/03/13 09:17:12;;;;;;;;;;;10.10;99.90;;;;;;5052374;28;19958;-76
2023/03/13 09:19:38;;;;;;;;;;;10.10;99.90;;;;;;5070321;28;19913;-76
2023/03/13 09:22:03;;;;;;;;;;;10.20;99.90;;;;;;5069751;28;19987;-76
2023/03/13 09:24:29;;;;;;;;;;;10.20;99.90;;;;;;5051902;28;19915;-76
2023/03/13 09:26:54;;;;;;;;;;;10.30;99.90;;;;;;5069862;28;19909;-76
2023/03/13 09:29:20;;;;;;;;;;;10.30;99.90;;;;;;5069772;28;20278;-76
2023/03/13 09:31:45;;;;;;;;;;;10.40;99.90;;;;;;5068351;28;19923;-76
2023/03/13 09:34:11;;;;;;;;;;;10.40;99.90;;;;;;5068939;28;19916;-76
2023/03/13 09:36:36;;;;;;;;;;;10.50;99.90;;;;;;5051862;28;19919;-77
2023/03/13 09:39:02;;;;;;;;;;;10.50;99.90;;;;;;5070044;28;19908;-75
2023/03/13 09:41:33;;;;;;;;;;;10.60;99.90;;;;;;5069732;28;19920;-76
2023/03/13 09:44:02;;;;;;;;;;;10.60;99.90;;;;;;5070072;28;20022;-76
2023/03/13 09:46:32;;;;;;;;;;;10.60;99.90;;;;;;5070045;28;19999;-76
2023/03/13 09:49:03;;;;;;;;;;;10.60;99.90;;;;;;5069849;28;19912;-76
2023/03/13 09:51:35;;;;;;;;;;;10.70;99.90;;;;;;5068772;28;20016;-76
2023/03/13 09:54:19;;;;;;;;;;;10.70;99.90;;;;;;5069572;28;20085;-76
2023/03/13 09:56:49;;;;;;;;;;;10.60;99.90;;;;;;5069357;28;19981;-76
2023/03/13 09:59:33;;;;;;;;;;;10.70;99.90;;;;;;5069558;28;20430;-76
2023/03/13 10:01:59;;;;;;;;;;;10.70;99.90;;;;;;5069467;28;20094;-76
2023/03/13 10:04:28;;;;;;;;;;;10.70;99.90;;;;;;5069470;28;20388;-76
2023/03/13 10:06:53;;;;;;;;;;;10.70;99.90;;;;;;5069063;28;19957;-77
2023/03/13 10:09:27;;;;;;;;;;;10.80;99.90;;;;;;5068896;28;19959;-77
2023/03/13 10:12:05;;;;;;;;;;;10.80;99.90;;;;;;5068544;28;19923;-77
2023/03/13 10:14:40;;;;;;;;;;;10.80;99.90;;;;;;5069556;28;20039;-76
2023/03/13 10:17:12;;;;;;;;;;;10.90;99.90;;;;;;5086048;28;19938;-76
2023/03/13 10:19:41;;;;;;;;;;;10.90;99.90;;;;;;5086899;28;20449;-76
2023/03/13 10:22:20;;;;;;;;;;;10.90;99.90;;;;;;5068417;28;19959;-76
2023/03/13 10:24:50;;;;;;;;;;;11.00;99.90;;;;;;5068352;28;19912;-76
2023/03/13 10:27:16;;;;;;;;;;;11.00;99.90;;;;;;5068717;28;19912;-77
2023/03/13 10:29:41;;;;;;;;;;;11.10;99.90;;;;;;5051011;28;20019;-76
2023/03/13 10:32:09;;;;;;;;;;;11.10;99.90;;;;;;5068954;28;19915;-77
2023/03/13 10:34:44;;;;;;;;;;;11.20;99.90;;;;;;5068802;28;19912;-77
2023/03/13 10:37:11;;;;;;;;;;;11.20;99.90;;;;;;5050933;28;19913;-76
2023/03/13 10:39:36;;;;;;;;;;;11.30;99.90;;;;;;5068986;28;20410;-76
2023/03/13 10:42:09;;;;;;;;;;;11.30;99.90;;;;;;5068129;28;20006;-77
2023/03/13 10:44:35;;;;;;;;;;;11.40;99.90;;;;;;5068772;28;19913;-77
2023/03/13 10:47:01;;;;;;;;;;;11.40;99.90;;;;;;5068345;28;19919;-76
2023/03/13 10:49:28;;;;;;;;;;;11.40;99.90;;;;;;5066282;28;19948;-77
2023/03/13 10:52:00;;;;;;;;;;;11.50;99.90;;;;;;5067646;28;20019;-77
2023/03/13 10:54:26;;;;;;;;;;;11.50;99.90;;;;;;5068622;28;19957;-77
2023/03/13 10:57:06;;;;;;;;;;;11.60;99.90;;;;;;5068319;28;20006;-77
2023/03/13 10:59:31;;;;;;;;;;;11.60;99.90;;;;;;5068723;28;20027;-77
2023/03/13 11:01:59;;;;;;;;;;;11.70;99.90;;;;;;5068775;28;20409;-77
2023/03/13 11:04:29;;;;;;;;;;;11.70;99.90;;;;;;5068675;28;19908;-77
2023/03/13 11:07:05;;;;;;;;;;;11.70;99.90;;;;;;5068211;28;19909;-77
2023/03/13 11:09:32;;;;;;;;;;;11.80;99.90;;;;;;5050668;28;19938;-77
2023/03/13 11:12:23;;;;;;;;;;;11.80;99.90;;;;;;5067944;28;19927;-77
2023/03/13 11:14:55;;;;;;;;;;;11.80;99.90;;;;;;5065568;28;20349;-77
2023/03/13 11:17:26;;;;;;;;;;;11.90;99.90;;;;;;5068046;28;19908;-77
2023/03/13 11:20:10;;;;;;;;;;;12.00;99.90;;;;;;5067651;28;20538;-77
2023/03/13 11:22:38;;;;;;;;;;;12.00;99.90;;;;;;5067608;28;20395;-77
2023/03/13 11:25:03;;;;;;;;;;;12.00;99.90;;;;;;5067961;28;19958;-77
2023/03/13 11:27:41;;;;;;;;;;;12.10;99.90;;;;;;5068351;28;20358;-77
2023/03/13 11:30:16;;;;;;;;;;;12.20;99.90;;;;;;5067424;28;20288;-77
2023/03/13 11:32:43;;;;;;;;;;;12.20;99.90;;;;;;5067568;28;19912;-77
2023/03/13 11:35:35;;;;;;;;;;;12.30;99.90;;;;;;5068258;28;20292;-77
2023/03/13 11:38:02;;;;;;;;;;;12.30;99.90;;;;;;5064333;28;19938;-77
2023/03/13 11:40:35;;;;;;;;;;;12.40;99.90;;;;;;5068663;28;19977;-77
2023/03/13 11:43:09;;;;;;;;;;;12.40;99.90;;;;;;5068378;28;19913;-77
2023/03/13 11:45:44;;;;;;;;;;;12.50;99.90;;;;;;5068813;28;19919;-77
2023/03/13 11:48:18;;;;;;;;;;;12.50;99.90;;;;;;5069526;28;19909;-76
2023/03/13 11:50:48;;;;;;;;;;;12.60;99.90;;;;;;5066180;28;20054;-77
2023/03/13 11:53:17;;;;;;;;;;;12.50;99.90;;;;;;5068774;28;19919;-77
2023/03/13 11:55:48;;;;;;;;;;;12.60;99.90;;;;;;5069436;28;19909;-76
2023/03/13 11:58:13;;;;;;;;;;;12.70;99.90;;;;;;5069451;28;19913;-76
2023/03/13 12:00:43;;;;;;;;;;;12.70;99.90;;;;;;5068488;28;19913;-77
2023/03/13 12:03:08;;;;;;;;;;;12.90;99.90;;;;;;5069640;28;19919;-77
2023/03/13 12:05:47;;;;;;;;;;;13.00;99.90;;;;;;5069595;28;19912;-77
2023/03/13 12:08:31;;;;;;;;;;;13.00;99.90;;;;;;5069983;28;19908;-76
2023/03/13 12:11:03;;;;;;;;;;;13.10;99.90;;;;;;5067456;28;19917;-77
2023/03/13 12:13:33;;;;;;;;;;;13.20;99.90;;;;;;5067699;28;19975;-77
2023/03/13 12:16:01;;;;;;;;;;;13.30;99.90;;;;;;5068079;28;19917;-77
2023/03/13 12:18:29;;;;;;;;;;;13.40;99.90;;;;;;5071843;28;19913;-77
2023/03/13 12:20:57;;;;;;;;;;;13.50;99.90;;;;;;5068344;28;19947;-77
2023/03/13 12:23:28;;;;;;;;;;;13.50;99.90;;;;;;5068668;28;19954;-77
2023/03/13 12:26:17;;;;;;;;;;;13.50;99.90;;;;;;5067814;28;19991;-77
2023/03/13 12:29:06;;;;;;;;;;;13.50;99.90;;;;;;5059788;28;19923;-76
2023/03/13 12:31:46;;;;;;;;;;;13.60;99.90;;;;;;5059339;28;19916;-76
2023/03/13 12:34:25;;;;;;;;;;;13.60;99.90;;;;;;5049641;28;19912;-76
2023/03/13 12:36:54;;;;;;;;;;;13.70;99.90;;;;;;5050024;28;19912;-75
2023/03/13 12:39:20;;;;;;;;;;;13.70;99.90;;;;;;5049857;28;19935;-77
2023/03/13 12:42:06;;;;;;;;;;;13.70;99.90;;;;;;5070642;28;19916;-76
2023/03/13 12:44:32;;;;;;;;;;;13.70;99.90;;;;;;5071969;28;19956;-77
2023/03/13 12:47:05;;;;;;;;;;;13.70;99.90;;;;;;5071670;28;19954;-77
2023/03/13 12:49:40;;;;;;;;;;;13.70;99.90;;;;;;5070751;28;19913;-77
2023/03/13 12:52:09;;;;;;;;;;;13.60;99.90;;;;;;5069840;28;20574;-79
2023/03/13 12:54:34;;;;;;;;;;;13.60;99.90;;;;;;5053882;28;19913;-77
2023/03/13 12:57:08;;;;;;;;;;;13.60;99.90;;;;;;5071056;28;19908;-78
2023/03/13 12:59:37;;;;;;;;;;;13.60;99.90;;;;;;5071500;28;19913;-77
2023/03/13 13:02:12;;;;;;;;;;;13.60;99.90;;;;;;5071177;28;20404;-78
2023/03/13 13:04:42;;;;;;;;;;;13.60;99.90;;;;;;5066944;28;19920;-78
2023/03/13 13:07:23;;;;;;;;;;;13.60;99.90;;;;;;5052127;28;19919;-78
2023/03/13 13:10:00;;;;;;;;;;;13.50;99.90;;;;;;5051073;28;19917;-77
2023/03/13 13:12:25;;;;;;;;;;;13.50;99.90;;;;;;5071653;28;20342;-77
2023/03/13 13:14:51;;;;;;;;;;;13.60;99.90;;;;;;5072070;28;19919;-76
2023/03/13 13:17:16;;;;;;;;;;;13.60;99.90;;;;;;5072123;28;19912;-77
2023/03/13 13:19:45;;;;;;;;;;;13.60;99.90;;;;;;5071903;28;19924;-77
2023/03/13 13:22:29;;;;;;;;;;;13.60;99.90;;;;;;5071283;28;19913;-77
2023/03/13 13:24:58;;;;;;;;;;;13.60;99.90;;;;;;5072468;28;20253;-77
2023/03/13 13:27:44;;;;;;;;;;;13.60;99.90;;;;;;5085834;28;19908;-77
2023/03/13 13:30:16;;;;;;;;;;;13.60;99.90;;;;;;5071324;28;19913;-76
2023/03/13 13:32:44;;;;;;;;;;;13.60;99.90;;;;;;5071296;28;20349;-77
2023/03/13 13:35:18;;;;;;;;;;;13.60;99.90;;;;;;5071254;28;19908;-77
2023/03/13 13:37:44;;;;;;;;;;;13.60;99.90;;;;;;5064023;28;20430;-77
2023/03/13 13:40:29;;;;;;;;;;;13.60;99.90;;;;;;5077782;28;19913;-76
2023/03/13 13:42:58;;;;;;;;;;;13.60;99.90;;;;;;5077413;28;19908;-77
2023/03/13 13:45:27;;;;;;;;;;;13.60;99.90;;;;;;5080740;28;20524;-77
2023/03/13 13:48:11;;;;;;;;;;;13.60;99.90;;;;;;5058129;28;19915;-77
2023/03/13 13:50:37;;;;;;;;;;;13.60;99.90;;;;;;5080025;28;19938;-76
2023/03/13 13:53:21;;;;;;;;;;;13.60;99.90;;;;;;5057521;28;19912;-77
2023/03/13 13:55:47;;;;;;;;;;;13.60;99.90;;;;;;5061003;28;19912;-77
2023/03/13 13:58:12;;;;;;;;;;;13.60;99.90;;;;;;5090916;28;20002;-78
2023/03/13 14:00:39;;;;;;;;;;;13.60;99.90;;;;;;5090164;28;19923;-78
2023/03/13 14:03:15;;;;;;;;;;;13.60;99.90;;;;;;5090779;28;19908;-78
2023/03/13 14:05:41;;;;;;;;;;;13.60;99.90;;;;;;5076321;28;20011;-78
2023/03/13 14:08:13;;;;;;;;;;;13.60;99.90;;;;;;5070103;28;20397;-78
2023/03/13 14:10:40;;;;;;;;;;;13.60;99.90;;;;;;5069816;28;20273;-77
2023/03/13 14:13:11;;;;;;;;;;;13.60;99.90;;;;;;5072474;28;19919;-78
2023/03/13 14:15:40;;;;;;;;;;;13.60;99.90;;;;;;5070287;28;19995;-77
2023/03/13 14:18:13;;;;;;;;;;;13.60;99.90;;;;;;5069932;28;19948;-77
2023/03/13 14:20:50;;;;;;;;;;;13.60;99.90;;;;;;5069366;28;20123;-78
2023/03/13 14:23:27;;;;;;;;;;;13.60;99.90;;;;;;5069382;28;19958;-77
2023/03/13 14:25:52;;;;;;;;;;;13.60;99.90;;;;;;5060265;28;19920;-78
2023/03/13 14:28:22;;;;;;;;;;;13.50;99.90;;;;;;5049731;28;19913;-77
2023/03/13 14:30:49;;;;;;;;;;;13.50;99.90;;;;;;5031420;28;20480;-78
2023/03/13 14:33:15;;;;;;;;;;;13.50;99.90;;;;;;5047983;28;20011;-79